createdAt,value
2019-04-21T00:01:22.258Z,26.63
2019-04-21T00:03:55.572Z,25.07
2019-04-21T00:06:41.086Z,25.53
2019-04-21T00:09:20.435Z,25.00
2019-04-21T00:11:49.686Z,24.03
2019-04-21T00:14:11.714Z,24.60
2019-04-21T00:16:34.794Z,24.10
2019-04-21T00:19:19.089Z,24.17
2019-04-21T00:21:51.124Z,24.63
2019-04-21T00:24:30.478Z,23.47
2019-04-21T00:27:05.554Z,24.37
2019-04-21T00:29:38.162Z,25.27
2019-04-21T00:32:01.798Z,24.80
2019-04-21T00:34:21.589Z,23.53
2019-04-21T00:37:05.126Z,26.00
2019-04-21T00:39:49.574Z,28.13
2019-04-21T00:42:14.021Z,27.30
2019-04-21T00:44:36.356Z,27.30
2019-04-21T00:47:18.020Z,26.47
2019-04-21T00:49:55.384Z,27.67
2019-04-21T00:52:40.183Z,27.17
2019-04-21T00:55:07.724Z,29.00
2019-04-21T00:57:32.539Z,27.03
2019-04-21T01:00:00.355Z,28.37
2019-04-21T01:02:40.244Z,32.53
2019-04-21T01:05:06.393Z,32.13
2019-04-21T01:07:38.514Z,32.90
2019-04-21T01:09:58.932Z,34.33
2019-04-21T01:12:37.653Z,32.40
2019-04-21T01:15:10.910Z,31.77
2019-04-21T01:17:40.570Z,29.97
2019-04-21T01:20:01.706Z,30.33
2019-04-21T01:22:20.103Z,30.57
2019-04-21T01:25:01.732Z,28.63
2019-04-21T01:27:39.406Z,30.90
2019-04-21T01:30:14.145Z,34.97
2019-04-21T01:32:45.202Z,37.67
2019-04-21T01:35:15.035Z,38.47
2019-04-21T01:37:52.412Z,37.07
2019-04-21T01:40:22.917Z,38.70
2019-04-21T01:42:45.749Z,39.17
2019-04-21T01:45:14.631Z,40.07
2019-04-21T01:47:46.440Z,41.07
2019-04-21T01:50:20.098Z,42.20
2019-04-21T01:52:57.498Z,42.43
2019-04-21T01:55:45.534Z,44.73
2019-04-21T01:58:12.886Z,44.40
2019-04-21T02:00:45.049Z,46.17
2019-04-21T02:03:43.936Z,42.43
2019-04-21T02:06:00.055Z,45.70
2019-04-21T02:08:27.504Z,46.50
2019-04-21T02:13:27.659Z,46.53
2019-04-21T02:18:27.299Z,47.63
2019-04-21T02:20:52.822Z,49.27
2019-04-21T02:23:38.492Z,51.27
2019-04-21T02:26:09.905Z,50.07
2019-04-21T02:28:42.347Z,52.90
2019-04-21T02:31:22.750Z,51.43
2019-04-21T02:33:54.279Z,51.40
2019-04-21T02:39:00.687Z,52.10
2019-04-21T02:41:21.479Z,54.00
2019-04-21T02:44:04.037Z,52.33
2019-04-21T02:46:35.885Z,53.63
2019-04-21T02:51:33.879Z,54.83
2019-04-21T02:54:35.926Z,54.83
2019-04-21T02:59:33.746Z,54.57
2019-04-21T03:02:19.042Z,54.80
2019-04-21T03:12:20.647Z,57.30
2019-04-21T03:17:35.894Z,55.37
2019-04-21T03:22:24.292Z,56.00
2019-04-21T03:30:20.700Z,58.60
2019-04-21T03:37:39.901Z,58.60
2019-04-21T03:40:07.570Z,58.33
2019-04-21T03:42:42.383Z,59.20
2019-04-21T03:45:16.868Z,60.33
2019-04-21T03:47:34.515Z,58.80
2019-04-21T03:50:11.107Z,59.00
2019-04-21T03:52:46.034Z,58.43
2019-04-21T03:55:50.969Z,59.07
2019-04-21T03:58:17.613Z,57.10
2019-04-21T04:00:50.279Z,58.10
2019-04-21T04:06:03.354Z,59.80
2019-04-21T04:08:50.200Z,60.90
2019-04-21T04:11:19.621Z,60.60
2019-04-21T04:21:24.335Z,61.63
2019-04-21T04:23:53.453Z,62.50
2019-04-21T04:26:26.247Z,62.60
2019-04-21T04:28:54.241Z,59.50
2019-04-21T04:31:31.915Z,60.80
2019-04-21T04:33:59.913Z,61.17
2019-04-21T04:39:26.276Z,64.27
2019-04-21T04:42:03.548Z,61.70
2019-04-21T04:44:22.879Z,60.07
2019-04-21T04:47:05.544Z,62.30
2019-04-21T04:49:39.636Z,63.07
2019-04-21T04:52:12.228Z,67.07
2019-04-21T04:54:41.737Z,65.60
2019-04-21T04:57:08.195Z,67.03
2019-04-21T05:02:16.330Z,67.10
2019-04-21T05:07:08.773Z,59.60
2019-04-21T05:09:41.221Z,58.93
2019-04-21T05:12:05.988Z,60.60
2019-04-21T05:14:48.229Z,57.30
2019-04-21T05:17:19.611Z,59.23
2019-04-21T05:19:58.977Z,56.13
2019-04-21T05:22:17.296Z,54.30
2019-04-21T05:24:33.735Z,56.60
2019-04-21T05:27:02.807Z,54.07
2019-04-21T05:29:55.717Z,55.07
2019-04-21T05:32:38.429Z,54.63
2019-04-21T05:35:08.398Z,54.10
2019-04-21T05:37:35.397Z,53.10
2019-04-21T05:40:05.425Z,53.03
2019-04-21T05:42:39.906Z,54.23
2019-04-21T05:45:16.759Z,53.57
2019-04-21T05:47:58.421Z,54.00
2019-04-21T05:50:19.214Z,50.27
2019-04-21T05:52:51.927Z,50.63
2019-04-21T05:57:58.319Z,48.27
2019-04-21T06:00:55.974Z,47.50
2019-04-21T06:03:09.851Z,46.33
2019-04-21T06:05:44.551Z,45.63
2019-04-21T06:08:09.782Z,43.90
2019-04-21T06:10:41.910Z,43.73
2019-04-21T06:15:50.005Z,41.40
2019-04-21T06:18:22.382Z,41.50
2019-04-21T06:20:51.554Z,41.57
2019-04-21T06:23:20.400Z,41.73
2019-04-21T06:28:20.934Z,38.37
2019-04-21T06:30:59.684Z,37.80
2019-04-21T06:33:27.508Z,36.87
2019-04-21T06:36:11.399Z,37.90
2019-04-21T06:38:54.038Z,35.27
2019-04-21T06:41:24.999Z,36.53
2019-04-21T06:46:28.586Z,37.07
2019-04-21T06:48:49.344Z,36.40
2019-04-21T06:51:24.064Z,36.60
2019-04-21T06:53:59.770Z,36.90
2019-04-21T06:56:30.944Z,35.83
2019-04-21T06:58:51.564Z,35.57
2019-04-21T07:01:31.260Z,37.17
2019-04-21T07:04:05.805Z,35.33
2019-04-21T07:06:29.530Z,36.20
2019-04-21T07:09:10.338Z,36.63
2019-04-21T07:11:27.112Z,35.87
2019-04-21T07:14:23.715Z,35.47
2019-04-21T07:16:42.914Z,36.07
2019-04-21T07:19:12.913Z,37.03
2019-04-21T07:21:34.232Z,37.00
2019-04-21T07:24:08.339Z,36.40
2019-04-21T07:26:36.391Z,34.97
2019-04-21T07:29:10.330Z,35.27
2019-04-21T07:31:48.209Z,35.00
2019-04-21T07:34:14.289Z,33.53
2019-04-21T07:36:52.150Z,34.43
2019-04-21T07:39:12.050Z,32.77
2019-04-21T07:41:39.842Z,32.97
2019-04-21T07:44:04.371Z,32.23
2019-04-21T07:46:38.487Z,36.00
2019-04-21T07:49:20.150Z,35.30
2019-04-21T07:51:52.104Z,33.77
2019-04-21T07:54:34.205Z,34.30
2019-04-21T07:56:37.103Z,33.83
2019-04-21T07:59:31.484Z,34.30
2019-04-21T08:01:55.192Z,34.40
2019-04-21T08:04:44.102Z,34.30
2019-04-21T08:06:58.182Z,34.00
2019-04-21T08:09:27.517Z,36.23
2019-04-21T08:11:51.759Z,34.00
2019-04-21T08:14:33.606Z,34.63
2019-04-21T08:17:03.232Z,32.10
2019-04-21T08:19:32.525Z,31.37
2019-04-21T08:24:34.728Z,33.10
2019-04-21T08:27:10.808Z,33.80
2019-04-21T08:29:44.785Z,32.17
2019-04-21T08:32:17.291Z,29.50
2019-04-21T08:34:43.157Z,31.57
2019-04-21T08:37:12.283Z,29.27
2019-04-21T08:42:18.071Z,29.63
2019-04-21T08:44:46.804Z,29.77
2019-04-21T08:47:19.073Z,28.53
2019-04-21T08:49:47.582Z,31.10
2019-04-21T08:52:32.691Z,31.23
2019-04-21T08:54:56.047Z,31.10
2019-04-21T08:57:53.855Z,30.80
2019-04-21T09:00:22.918Z,28.80
2019-04-21T09:03:03.745Z,30.60
2019-04-21T09:05:31.269Z,28.57
2019-04-21T09:08:04.029Z,29.57
2019-04-21T09:10:36.602Z,29.37
2019-04-21T09:13:04.282Z,29.43
2019-04-21T09:18:04.930Z,25.27
2019-04-21T09:23:06.389Z,27.77
2019-04-21T09:28:11.202Z,29.13
2019-04-21T09:30:30.036Z,27.63
2019-04-21T09:32:59.810Z,28.03
2019-04-21T09:35:29.171Z,27.73
2019-04-21T09:38:10.768Z,24.50
2019-04-21T09:40:36.193Z,28.80
2019-04-21T09:43:07.984Z,28.37
2019-04-21T09:45:35.491Z,30.37
2019-04-21T09:48:11.464Z,29.27
2019-04-21T09:50:38.260Z,31.30
2019-04-21T09:53:17.891Z,32.20
2019-04-21T09:55:48.727Z,33.63
2019-04-21T09:58:21.874Z,31.63
2019-04-21T10:00:56.632Z,33.63
2019-04-21T10:03:16.265Z,33.53
2019-04-21T10:05:45.475Z,33.93
2019-04-21T10:08:15.094Z,34.53
2019-04-21T10:10:44.598Z,33.90
2019-04-21T10:13:15.057Z,34.27
2019-04-21T10:15:46.309Z,32.97
2019-04-21T10:18:19.995Z,34.70
2019-04-21T10:20:49.483Z,34.40
2019-04-21T10:23:18.968Z,32.40
2019-04-21T10:25:48.542Z,31.83
2019-04-21T10:28:18.981Z,32.67
2019-04-21T10:30:48.970Z,31.13
2019-04-21T10:33:18.707Z,29.40
2019-04-21T10:35:48.891Z,29.13
2019-04-21T10:38:29.299Z,30.60
2019-04-21T10:40:49.828Z,27.30
2019-04-21T10:43:22.123Z,28.03
2019-04-21T10:45:50.770Z,26.83
2019-04-21T10:48:20.995Z,26.70
2019-04-21T10:50:50.852Z,22.97
2019-04-21T10:53:23.037Z,25.10
2019-04-21T10:56:06.461Z,22.50
2019-04-21T10:58:26.596Z,24.90
2019-04-21T11:01:04.187Z,22.73
2019-04-21T11:03:38.369Z,19.83
2019-04-21T11:06:08.883Z,12.67
2019-04-21T11:08:44.073Z,15.00
2019-04-21T11:11:10.042Z,14.90
2019-04-21T11:13:40.821Z,11.77
2019-04-21T11:16:11.111Z,10.90
2019-04-21T11:18:42.155Z,11.33
2019-04-21T11:21:13.110Z,11.07
2019-04-21T11:23:43.917Z,11.57
2019-04-21T11:26:13.906Z,11.33
2019-04-21T11:28:45.100Z,12.00
2019-04-21T11:31:15.387Z,13.00
2019-04-21T11:33:45.412Z,10.57
2019-04-21T11:36:15.493Z,10.13
2019-04-21T11:39:05.604Z,10.07
2019-04-21T11:41:19.555Z,9.53
2019-04-21T11:43:49.184Z,8.20
2019-04-21T11:46:20.349Z,9.10
2019-04-21T11:48:52.479Z,7.40
2019-04-21T11:51:22.779Z,8.00
2019-04-21T11:53:52.876Z,10.47
2019-04-21T11:56:25.073Z,9.33
2019-04-21T11:58:54.777Z,10.50
2019-04-21T12:01:25.644Z,9.90
2019-04-21T12:03:55.752Z,10.90
2019-04-21T12:06:32.193Z,12.47
2019-04-21T12:08:59.862Z,13.50
2019-04-21T12:11:27.902Z,11.60
2019-04-21T12:13:58.857Z,13.30
2019-04-21T12:16:28.829Z,13.83
2019-04-21T12:19:00.666Z,13.43
2019-04-21T12:21:45.118Z,10.53
2019-04-21T12:24:02.715Z,11.93
2019-04-21T12:26:33.773Z,13.27
2019-04-21T12:29:04.070Z,11.17
2019-04-21T12:31:47.678Z,11.77
2019-04-21T12:34:17.953Z,13.73
2019-04-21T12:36:48.800Z,13.50
2019-04-21T12:39:18.788Z,13.70
2019-04-21T12:41:48.854Z,22.07
2019-04-21T12:44:18.690Z,21.83
2019-04-21T12:46:48.155Z,21.50
2019-04-21T12:49:17.935Z,20.90
2019-04-21T12:51:48.066Z,20.43
2019-04-21T12:54:19.630Z,21.03
2019-04-21T12:56:49.583Z,20.30
2019-04-21T12:59:19.156Z,21.73
2019-04-21T13:01:48.729Z,20.93
2019-04-21T13:04:21.829Z,19.97
2019-04-21T13:06:51.869Z,20.13
2019-04-21T13:09:22.239Z,19.63
2019-04-21T13:11:53.001Z,20.03
2019-04-21T13:14:23.948Z,20.57
2019-04-21T13:16:53.528Z,20.70
2019-04-21T13:19:23.293Z,19.70
2019-04-21T13:21:53.926Z,20.10
2019-04-21T13:24:24.117Z,20.00
2019-04-21T13:26:58.511Z,20.60
2019-04-21T13:29:26.005Z,20.10
2019-04-21T13:31:56.266Z,19.13
2019-04-21T13:34:26.340Z,20.03
2019-04-21T13:36:57.367Z,19.07
2019-04-21T13:39:55.542Z,18.20
2019-04-21T13:42:16.483Z,19.00
2019-04-21T13:44:39.152Z,19.07
2019-04-21T13:47:12.513Z,19.70
2019-04-21T13:49:43.380Z,18.77
2019-04-21T13:52:13.087Z,19.47
2019-04-21T13:54:43.247Z,18.83
2019-04-21T13:57:14.311Z,19.07
2019-04-21T13:59:44.495Z,18.57
2019-04-21T14:02:14.106Z,18.23
2019-04-21T14:04:43.624Z,17.97
2019-04-21T14:07:14.271Z,17.50
2019-04-21T14:09:54.551Z,18.50
2019-04-21T14:12:15.152Z,18.20
2019-04-21T14:14:46.214Z,17.67
2019-04-21T14:17:17.014Z,16.93
2019-04-21T14:19:46.744Z,16.83
2019-04-21T14:22:18.100Z,17.50
2019-04-21T14:24:48.024Z,17.17
2019-04-21T14:27:18.551Z,16.77
2019-04-21T14:29:49.256Z,16.47
2019-04-21T14:32:20.235Z,16.83
2019-04-21T14:34:50.724Z,16.90
2019-04-21T14:37:22.498Z,17.17
2019-04-21T14:39:59.695Z,17.40
2019-04-21T14:42:24.350Z,16.07
2019-04-21T14:44:54.703Z,15.67
2019-04-21T14:47:33.316Z,16.17
2019-04-21T14:50:15.531Z,16.83
2019-04-21T14:52:46.538Z,16.90
2019-04-21T14:55:18.815Z,17.07
2019-04-21T14:57:49.341Z,17.20
2019-04-21T15:00:20.921Z,18.20
2019-04-21T15:02:51.754Z,16.07
2019-04-21T15:05:22.062Z,18.27
2019-04-21T15:07:53.040Z,17.10
2019-04-21T15:10:26.965Z,17.83
2019-04-21T15:12:54.189Z,18.33
2019-04-21T15:15:23.683Z,17.27
2019-04-21T15:17:53.566Z,17.00
2019-04-21T15:20:23.846Z,16.87
2019-04-21T15:22:56.562Z,16.63
2019-04-21T15:25:26.388Z,15.80
2019-04-21T15:27:56.917Z,16.00
2019-04-21T15:30:28.848Z,16.30
2019-04-21T15:32:58.581Z,15.73
2019-04-21T15:35:29.000Z,15.57
2019-04-21T15:37:59.922Z,14.70
2019-04-21T15:40:40.051Z,14.30
2019-04-21T15:43:04.259Z,14.70
2019-04-21T15:45:34.890Z,13.57
2019-04-21T15:48:05.207Z,14.37
2019-04-21T15:50:35.673Z,14.43
2019-04-21T15:53:09.817Z,14.30
2019-04-21T15:55:44.526Z,13.70
2019-04-21T15:58:22.888Z,13.73
2019-04-21T16:00:58.493Z,13.83
2019-04-21T16:03:29.019Z,14.10
2019-04-21T16:05:59.372Z,14.27
2019-04-21T16:08:29.105Z,13.13
2019-04-21T16:11:03.612Z,14.53
2019-04-21T16:13:29.959Z,14.60
2019-04-21T16:15:59.498Z,13.83
2019-04-21T16:18:29.991Z,14.20
2019-04-21T16:20:59.941Z,14.50
2019-04-21T16:23:30.707Z,14.07
2019-04-21T16:26:02.652Z,14.07
2019-04-21T16:28:33.336Z,13.83
2019-04-21T16:31:02.801Z,14.57
2019-04-21T16:33:33.450Z,13.87
2019-04-21T16:36:02.949Z,15.00
2019-04-21T16:38:33.518Z,14.93
2019-04-21T16:41:05.542Z,14.57
2019-04-21T16:43:35.404Z,14.33
2019-04-21T16:46:05.051Z,13.60
2019-04-21T16:48:35.744Z,13.50
2019-04-21T16:51:05.792Z,13.53
2019-04-21T16:53:39.897Z,13.93
2019-04-21T16:56:11.197Z,13.77
2019-04-21T16:58:43.015Z,13.07
2019-04-21T17:01:21.698Z,12.93
2019-04-21T17:03:52.575Z,12.57
2019-04-21T17:06:22.845Z,12.00
2019-04-21T17:08:52.697Z,12.23
2019-04-21T17:11:27.293Z,12.13
2019-04-21T17:13:54.278Z,11.40
2019-04-21T17:19:05.326Z,11.27
2019-04-21T17:21:27.884Z,10.97
2019-04-21T17:23:58.894Z,10.47
2019-04-21T17:26:29.007Z,11.03
2019-04-21T17:28:58.796Z,10.87
2019-04-21T17:31:28.795Z,11.57
2019-04-21T17:34:06.392Z,13.03
2019-04-21T17:36:31.036Z,12.37
2019-04-21T17:39:02.296Z,12.00
2019-04-21T17:41:41.207Z,12.33
2019-04-21T17:44:04.463Z,12.33
2019-04-21T17:46:44.046Z,12.40
2019-04-21T17:49:05.432Z,11.93
2019-04-21T17:52:00.532Z,12.77
2019-04-21T17:54:35.694Z,12.77
2019-04-21T17:57:24.453Z,12.27
2019-04-21T17:59:58.434Z,13.53
2019-04-21T18:02:24.733Z,12.63
2019-04-21T18:04:58.606Z,13.10
2019-04-21T18:07:27.669Z,13.00
2019-04-21T18:10:03.335Z,12.83
2019-04-21T18:12:30.295Z,13.77
2019-04-21T18:14:58.792Z,14.63
2019-04-21T18:17:16.451Z,13.93
2019-04-21T18:19:49.212Z,13.83
2019-04-21T18:22:38.613Z,13.37
2019-04-21T18:25:25.255Z,14.60
2019-04-21T18:27:42.746Z,13.80
2019-04-21T18:30:48.712Z,15.03
2019-04-21T18:33:27.205Z,14.27
2019-04-21T18:36:05.762Z,14.60
2019-04-21T18:38:59.768Z,15.30
2019-04-21T18:41:13.541Z,14.73
2019-04-21T18:44:19.701Z,14.23
2019-04-21T18:46:40.634Z,15.57
2019-04-21T18:48:55.234Z,14.30
2019-04-21T18:51:54.184Z,15.50
2019-04-21T18:54:28.963Z,15.30
2019-04-21T18:56:54.972Z,15.13
2019-04-21T18:59:14.699Z,15.23
2019-04-21T19:01:51.545Z,15.57
2019-04-21T19:04:20.498Z,15.13
2019-04-21T19:07:03.093Z,16.03
2019-04-21T19:09:47.598Z,15.37
2019-04-21T19:12:10.066Z,16.13
2019-04-21T19:17:39.683Z,15.40
2019-04-21T19:20:04.680Z,14.37
2019-04-21T19:22:11.824Z,15.93
2019-04-21T19:24:49.073Z,15.63
2019-04-21T19:27:19.144Z,15.30
2019-04-21T19:29:52.171Z,15.17
2019-04-21T19:32:19.816Z,15.00
2019-04-21T19:34:37.874Z,15.33
2019-04-21T19:37:10.853Z,15.70
2019-04-21T19:39:49.092Z,15.80
2019-04-21T19:42:18.203Z,15.47
2019-04-21T19:44:53.380Z,14.97
2019-04-21T19:47:28.216Z,15.17
2019-04-21T19:50:00.334Z,14.70
2019-04-21T19:52:25.544Z,13.97
2019-04-21T19:54:45.445Z,14.73
2019-04-21T19:57:13.235Z,15.03
2019-04-21T19:59:48.538Z,14.90
2019-04-21T20:02:14.199Z,14.23
2019-04-21T20:04:52.207Z,14.17
2019-04-21T20:07:28.993Z,14.50
2019-04-21T20:10:06.604Z,13.47
2019-04-21T20:12:39.774Z,14.13
2019-04-21T20:15:13.559Z,13.53
2019-04-21T20:17:37.718Z,14.20
2019-04-21T20:19:52.036Z,12.23
2019-04-21T20:22:30.967Z,12.93
2019-04-21T20:25:02.659Z,13.53
2019-04-21T20:27:36.341Z,13.70
2019-04-21T20:30:13.460Z,12.97
2019-04-21T20:32:48.869Z,13.90
2019-04-21T20:35:22.457Z,12.73
2019-04-21T20:37:47.718Z,13.63
2019-04-21T20:40:05.162Z,19.00
2019-04-21T20:42:45.520Z,21.63
2019-04-21T20:47:42.379Z,18.13
2019-04-21T20:50:22.089Z,14.97
2019-04-21T20:52:58.499Z,14.00
2019-04-21T20:55:20.057Z,12.53
2019-04-21T20:57:53.903Z,12.87
2019-04-21T21:00:32.294Z,13.17
2019-04-21T21:03:09.030Z,13.33
2019-04-21T21:05:27.607Z,12.83
2019-04-21T21:08:10.458Z,13.43
2019-04-21T21:10:34.789Z,13.43
2019-04-21T21:13:14.745Z,12.60
2019-04-21T21:15:41.900Z,13.30
2019-04-21T21:18:15.760Z,14.43
2019-04-21T21:20:45.059Z,13.83
2019-04-21T21:23:09.540Z,13.80
2019-04-21T21:26:03.143Z,13.67
2019-04-21T21:28:09.213Z,14.50
2019-04-21T21:30:37.612Z,13.20
2019-04-21T21:33:17.410Z,14.30
2019-04-21T21:35:42.478Z,14.23
2019-04-21T21:38:21.085Z,14.37
2019-04-21T21:40:45.503Z,13.43
2019-04-21T21:43:10.676Z,13.33
2019-04-21T21:45:42.184Z,14.07
2019-04-21T21:48:21.722Z,13.73
2019-04-21T21:50:49.168Z,13.70
2019-04-21T21:53:18.775Z,14.70
2019-04-21T21:55:44.621Z,13.80
2019-04-21T21:58:19.416Z,13.70
2019-04-21T22:00:54.598Z,14.80
2019-04-21T22:03:27.089Z,14.50
2019-04-21T22:05:59.823Z,15.17
2019-04-21T22:08:20.762Z,14.17
2019-04-21T22:10:50.415Z,14.33
2019-04-21T22:13:22.166Z,14.53
2019-04-21T22:15:56.592Z,13.93
2019-04-21T22:18:39.315Z,14.80
2019-04-21T22:21:07.645Z,14.43
2019-04-21T22:23:36.911Z,13.70
2019-04-21T22:25:57.604Z,13.77
2019-04-21T22:28:27.558Z,14.80
2019-04-21T22:30:57.174Z,14.70
2019-04-21T22:33:31.286Z,14.17
2019-04-21T22:36:05.710Z,14.67
2019-04-21T22:38:43.767Z,15.23
2019-04-21T22:41:13.009Z,14.83
2019-04-21T22:43:36.637Z,15.57
2019-04-21T22:46:03.364Z,15.40
2019-04-21T22:48:33.008Z,16.50
2019-04-21T22:51:04.503Z,15.73
2019-04-21T22:53:36.225Z,16.13
2019-04-21T22:56:14.801Z,16.23
2019-04-21T22:58:41.829Z,15.50
2019-04-21T23:01:09.695Z,16.47
2019-04-21T23:03:47.045Z,16.63
2019-04-21T23:06:19.617Z,16.57
2019-04-21T23:08:45.586Z,16.90
2019-04-21T23:11:14.643Z,16.40
2019-04-21T23:13:51.639Z,17.03
2019-04-21T23:16:21.473Z,16.80
2019-04-21T23:19:07.510Z,17.50
2019-04-21T23:21:42.632Z,17.33
2019-04-21T23:24:13.473Z,16.87
2019-04-21T23:26:39.433Z,17.60
2019-04-21T23:29:14.339Z,17.87
2019-04-21T23:31:47.796Z,18.07
2019-04-21T23:33:55.870Z,17.40
2019-04-21T23:36:28.379Z,17.43
2019-04-21T23:38:58.391Z,19.33
2019-04-21T23:41:39.034Z,18.37
2019-04-21T23:44:05.892Z,18.83
2019-04-21T23:46:33.367Z,19.00
2019-04-21T23:49:16.323Z,19.73
2019-04-21T23:51:42.026Z,19.50
2019-04-21T23:54:03.281Z,18.90
2019-04-21T23:56:35.810Z,19.20
2019-04-21T23:59:07.485Z,19.27
